Orlando, Florida
Traffic Map
Current Weather Conditions
Orlando, Florida
Overcast
Overcast
79°
Feels Like: 81°
Wind Chill: 79° Ceiling: 4100
Heat Index: 81° Visibility: 10mi
Dew Point: 66° Wind: 15mph
Humidity: 64% Direction: 90° (E)
Pressure: 30.37in Gusts: 20mph
Raw Report DataKORL 231653Z 09013G17KT 10SM SCT028 BKN041 OVC070 26/19 A3037 RMK AO2 RAB1554E07 SLP287 P0000 T02610189
Traffic Incident Summary
Active as of:
Severity:
Category:
InformationThere was an issue retrieving the traffic information for this location. Please try a different location or try again shortly.
Advertisements